MDT,Max TemperatureF,Mean TemperatureF,Min TemperatureF,Max Dew PointF,MeanDew PointF,Min DewpointF,Max Humidity, Mean Humidity, Min Humidity, Max Sea Level PressureIn, Mean Sea Level PressureIn, Min Sea Level PressureIn, Max VisibilityMiles, Mean VisibilityMiles, Min VisibilityMiles, Max Wind SpeedMPH, Mean Wind SpeedMPH, Max Gust SpeedMPH,PrecipitationIn, CloudCover, Events, WindDirDegrees
2013-10-1,58,46,34,30,27,22,75,50,24,30.01,29.90,29.78,10,10,10,32,18,40,0.00,0,,238
2013-10-2,55,43,30,30,25,19,82,54,26,30.17,30.08,30.02,10,10,10,22,10,28,0.00,1,,207
2013-10-3,42,38,34,34,30,28,92,76,60,30.50,30.28,30.06,10,10,8,22,12,29,T,8,Rain,25
2013-10-4,50,39,28,34,28,24,100,70,39,30.59,30.50,30.37,10,10,10,16,7,20,0.00,3,,218
2013-10-5,64,49,34,29,26,23,70,48,25,30.35,30.25,30.17,10,10,10,28,17,33,0.00,0,,213
2013-10-6,73,61,48,30,27,23,42,29,16,30.15,30.07,29.91,10,10,10,24,16,30,0.00,0,,216
2013-10-7,74,60,46,29,26,22,42,29,15,29.88,29.74,29.63,10,10,10,32,16,40,0.00,1,,230
2013-10-8,58,44,29,30,26,23,85,56,27,30.04,29.82,29.71,10,10,10,30,13,37,0.00,2,,236
2013-10-9,53,40,27,36,32,26,92,71,50,30.20,30.07,29.90,10,10,10,10,4,13,0.00,4,,280
2013-10-10,59,44,29,34,29,18,92,57,21,29.89,29.82,29.75,10,10,10,20,8,23,0.00,2,,257
2013-10-11,53,41,28,36,32,29,100,71,41,30.13,30.02,29.85,10,10,10,13,6,15,T,7,Rain,299
2013-10-12,52,38,23,35,28,23,100,69,38,30.21,30.16,30.12,10,10,10,12,6,17,T,4,,70
2013-10-13,51,41,30,33,31,28,92,68,44,30.31,30.24,30.19,10,10,10,15,6,18,0.00,7,,8
2013-10-14,50,40,30,37,32,27,100,71,42,30.51,30.39,30.25,10,10,10,12,5,15,0.01,7,Rain,339
2013-10-15,57,42,26,30,26,23,92,60,27,30.48,30.30,30.12,10,10,10,23,13,29,0.00,0,,205
2013-10-16,46,39,32,38,32,23,100,75,49,30.30,30.18,30.07,10,9,3,22,9,26,0.32,6,Rain,268
2013-10-17,43,36,28,36,33,28,100,84,67,30.36,30.27,30.17,10,10,10,25,8,31,0.01,6,Rain,242
2013-10-18,58,44,30,31,29,27,89,63,36,30.35,30.17,30.03,10,10,10,23,13,28,0.00,1,,218
2013-10-19,64,51,37,35,30,25,76,51,25,30.08,29.98,29.90,10,10,10,24,13,31,0.02,2,,257
2013-10-20,59,49,38,39,35,29,86,60,33,30.14,30.10,30.05,10,10,10,13,6,17,T,6,Rain,250
2013-10-21,66,52,37,36,34,32,82,57,31,30.13,30.11,30.08,10,10,10,21,10,29,0.00,2,,239
2013-10-22,69,52,34,37,32,27,92,57,21,30.18,30.12,30.06,10,10,10,17,7,21,0.00,0,,231
2013-10-23,59,45,30,38,33,29,89,65,40,30.30,30.25,30.17,10,10,10,15,6,18,0.00,0,,326
2013-10-24,65,47,28,38,34,29,96,65,34,30.30,30.19,30.04,10,10,10,16,6,20,0.00,0,,194
2013-10-25,65,49,32,33,30,27,76,50,24,30.29,30.19,30.04,10,10,10,16,7,18,0.00,0,,198
2013-10-26,68,48,27,32,25,18,92,55,18,30.28,30.16,29.97,10,10,10,25,12,31,0.00,0,,221
2013-10-27,57,40,22,29,25,21,100,64,28,30.37,30.07,29.85,10,8,1,29,15,36,0.15,4,Snow,360
2013-10-28,22,21,19,21,19,17,100,92,84,30.49,30.34,30.22,10,2,0,21,12,25,0.42,8,Fog-Snow,19
2013-10-29,28,19,10,21,17,12,100,88,75,30.33,30.08,29.79,10,7,0,13,5,14,0.00,4,Fog,154
2013-10-30,43,34,24,29,25,17,84,70,55,29.96,29.91,29.88,10,10,10,21,14,24,0.00,1,,213
2013-10-31,49,42,34,32,28,26,75,64,53,30.02,29.89,29.84,10,10,10,31,15,38,0.00,2,,237